sensor_id;sensor_type;location;lat;lon;timestamp;temperature;humidity
72206;DHT22;60111;48.286;7.812;2023-08-20T00:00:19;23.50;78.20
72206;DHT22;60111;48.286;7.812;2023-08-20T00:03:02;23.50;78.60
72206;DHT22;60111;48.286;7.812;2023-08-20T00:05:29;23.40;79.20
72206;DHT22;60111;48.286;7.812;2023-08-20T00:08:01;23.40;79.00
72206;DHT22;60111;48.286;7.812;2023-08-20T00:10:34;23.30;79.00
72206;DHT22;60111;48.286;7.812;2023-08-20T00:13:07;23.20;79.20
72206;DHT22;60111;48.286;7.812;2023-08-20T00:15:41;23.10;79.90
72206;DHT22;60111;48.286;7.812;2023-08-20T00:18:15;23.10;80.20
72206;DHT22;60111;48.286;7.812;2023-08-20T00:20:48;23.10;80.30
72206;DHT22;60111;48.286;7.812;2023-08-20T00:23:21;23.10;80.60
72206;DHT22;60111;48.286;7.812;2023-08-20T00:25:54;23.00;80.80
72206;DHT22;60111;48.286;7.812;2023-08-20T00:28:27;23.10;80.80
72206;DHT22;60111;48.286;7.812;2023-08-20T00:31:01;23.10;80.80
72206;DHT22;60111;48.286;7.812;2023-08-20T00:33:35;23.10;80.80
72206;DHT22;60111;48.286;7.812;2023-08-20T00:36:07;23.10;80.90
72206;DHT22;60111;48.286;7.812;2023-08-20T00:38:40;23.10;80.80
72206;DHT22;60111;48.286;7.812;2023-08-20T00:41:12;23.00;80.80
72206;DHT22;60111;48.286;7.812;2023-08-20T00:43:45;23.00;80.80
72206;DHT22;60111;48.286;7.812;2023-08-20T00:46:17;23.00;81.00
72206;DHT22;60111;48.286;7.812;2023-08-20T00:48:50;22.90;80.90
72206;DHT22;60111;48.286;7.812;2023-08-20T00:51:23;22.90;80.60
72206;DHT22;60111;48.286;7.812;2023-08-20T00:53:56;22.80;80.70
72206;DHT22;60111;48.286;7.812;2023-08-20T00:56:29;22.80;81.00
72206;DHT22;60111;48.286;7.812;2023-08-20T00:59:03;22.70;81.30
72206;DHT22;60111;48.286;7.812;2023-08-20T01:01:36;22.70;81.50
72206;DHT22;60111;48.286;7.812;2023-08-20T01:04:09;22.60;81.50
72206;DHT22;60111;48.286;7.812;2023-08-20T01:12:06;22.60;82.00
72206;DHT22;60111;48.286;7.812;2023-08-20T01:14:40;22.60;82.10
72206;DHT22;60111;48.286;7.812;2023-08-20T01:17:12;22.60;81.40
72206;DHT22;60111;48.286;7.812;2023-08-20T01:19:46;22.60;81.40
72206;DHT22;60111;48.286;7.812;2023-08-20T01:25:39;22.40;82.00
72206;DHT22;60111;48.286;7.812;2023-08-20T01:28:26;22.40;81.90
72206;DHT22;60111;48.286;7.812;2023-08-20T01:31:00;22.30;82.30
72206;DHT22;60111;48.286;7.812;2023-08-20T01:33:34;22.30;83.20
72206;DHT22;60111;48.286;7.812;2023-08-20T01:36:08;22.20;83.20
72206;DHT22;60111;48.286;7.812;2023-08-20T01:38:44;22.20;83.20
72206;DHT22;60111;48.286;7.812;2023-08-20T01:41:17;22.20;82.90
72206;DHT22;60111;48.286;7.812;2023-08-20T01:43:49;22.20;82.90
72206;DHT22;60111;48.286;7.812;2023-08-20T01:46:22;22.10;83.20
72206;DHT22;60111;48.286;7.812;2023-08-20T01:48:55;22.10;83.50
72206;DHT22;60111;48.286;7.812;2023-08-20T01:51:27;22.10;83.70
72206;DHT22;60111;48.286;7.812;2023-08-20T01:54:01;22.10;83.60
72206;DHT22;60111;48.286;7.812;2023-08-20T01:56:33;22.10;83.50
72206;DHT22;60111;48.286;7.812;2023-08-20T01:59:06;22.10;83.30
72206;DHT22;60111;48.286;7.812;2023-08-20T02:01:39;22.10;83.30
72206;DHT22;60111;48.286;7.812;2023-08-20T02:04:11;22.10;83.50
72206;DHT22;60111;48.286;7.812;2023-08-20T02:06:44;22.10;83.70
72206;DHT22;60111;48.286;7.812;2023-08-20T02:09:16;22.10;83.80
72206;DHT22;60111;48.286;7.812;2023-08-20T02:11:50;22.10;83.80
72206;DHT22;60111;48.286;7.812;2023-08-20T02:14:23;22.00;83.90
72206;DHT22;60111;48.286;7.812;2023-08-20T02:16:55;22.00;84.00
72206;DHT22;60111;48.286;7.812;2023-08-20T02:19:28;22.10;84.10
72206;DHT22;60111;48.286;7.812;2023-08-20T02:22:01;22.10;84.00
72206;DHT22;60111;48.286;7.812;2023-08-20T02:24:34;22.00;84.00
72206;DHT22;60111;48.286;7.812;2023-08-20T02:27:06;22.10;84.00
72206;DHT22;60111;48.286;7.812;2023-08-20T02:29:39;22.10;84.10
72206;DHT22;60111;48.286;7.812;2023-08-20T02:32:12;22.10;84.10
72206;DHT22;60111;48.286;7.812;2023-08-20T02:34:44;22.10;83.60
72206;DHT22;60111;48.286;7.812;2023-08-20T02:37:19;22.20;83.30
72206;DHT22;60111;48.286;7.812;2023-08-20T02:39:51;22.10;83.40
72206;DHT22;60111;48.286;7.812;2023-08-20T02:42:24;22.20;83.10
72206;DHT22;60111;48.286;7.812;2023-08-20T02:44:56;22.10;83.10
72206;DHT22;60111;48.286;7.812;2023-08-20T02:47:29;22.10;83.20
72206;DHT22;60111;48.286;7.812;2023-08-20T02:50:02;22.00;83.30
72206;DHT22;60111;48.286;7.812;2023-08-20T02:52:34;22.00;83.40
72206;DHT22;60111;48.286;7.812;2023-08-20T02:55:07;21.90;83.60
72206;DHT22;60111;48.286;7.812;2023-08-20T02:57:40;21.90;83.70
72206;DHT22;60111;48.286;7.812;2023-08-20T03:00:13;21.90;83.50
72206;DHT22;60111;48.286;7.812;2023-08-20T03:02:46;21.90;83.20
72206;DHT22;60111;48.286;7.812;2023-08-20T03:05:18;21.90;82.90
72206;DHT22;60111;48.286;7.812;2023-08-20T03:07:51;21.80;83.40
72206;DHT22;60111;48.286;7.812;2023-08-20T03:10:24;21.70;84.30
72206;DHT22;60111;48.286;7.812;2023-08-20T03:12:56;21.60;84.50
72206;DHT22;60111;48.286;7.812;2023-08-20T03:15:29;21.60;84.40
72206;DHT22;60111;48.286;7.812;2023-08-20T03:18:03;21.50;84.80
72206;DHT22;60111;48.286;7.812;2023-08-20T03:20:35;21.60;85.00
72206;DHT22;60111;48.286;7.812;2023-08-20T03:23:08;21.50;85.10
72206;DHT22;60111;48.286;7.812;2023-08-20T03:25:40;21.50;84.90
72206;DHT22;60111;48.286;7.812;2023-08-20T03:28:13;21.50;84.50
72206;DHT22;60111;48.286;7.812;2023-08-20T03:30:46;21.50;84.90
72206;DHT22;60111;48.286;7.812;2023-08-20T03:33:18;21.40;85.00
72206;DHT22;60111;48.286;7.812;2023-08-20T03:35:51;21.40;85.40
72206;DHT22;60111;48.286;7.812;2023-08-20T03:38:23;21.40;85.30
72206;DHT22;60111;48.286;7.812;2023-08-20T03:40:56;21.40;85.10
72206;DHT22;60111;48.286;7.812;2023-08-20T03:43:29;21.30;85.50
72206;DHT22;60111;48.286;7.812;2023-08-20T03:46:02;21.30;85.90
72206;DHT22;60111;48.286;7.812;2023-08-20T03:48:34;21.20;85.80
72206;DHT22;60111;48.286;7.812;2023-08-20T03:51:07;21.20;85.90
72206;DHT22;60111;48.286;7.812;2023-08-20T03:53:39;21.20;86.00
72206;DHT22;60111;48.286;7.812;2023-08-20T03:56:12;21.30;86.20
72206;DHT22;60111;48.286;7.812;2023-08-20T03:58:45;21.20;86.10
72206;DHT22;60111;48.286;7.812;2023-08-20T04:01:18;21.30;86.00
72206;DHT22;60111;48.286;7.812;2023-08-20T04:03:50;21.30;86.10
72206;DHT22;60111;48.286;7.812;2023-08-20T04:06:23;21.30;86.30
72206;DHT22;60111;48.286;7.812;2023-08-20T04:08:55;21.30;86.40
72206;DHT22;60111;48.286;7.812;2023-08-20T04:11:28;21.30;86.30
72206;DHT22;60111;48.286;7.812;2023-08-20T04:14:01;21.40;86.10
72206;DHT22;60111;48.286;7.812;2023-08-20T04:16:34;21.40;85.80
72206;DHT22;60111;48.286;7.812;2023-08-20T04:19:06;21.40;85.70
72206;DHT22;60111;48.286;7.812;2023-08-20T04:21:39;21.40;85.50
72206;DHT22;60111;48.286;7.812;2023-08-20T04:24:12;21.40;85.60
72206;DHT22;60111;48.286;7.812;2023-08-20T04:26:44;21.40;85.60
72206;DHT22;60111;48.286;7.812;2023-08-20T04:29:17;21.30;85.50
72206;DHT22;60111;48.286;7.812;2023-08-20T04:31:49;21.30;85.60
72206;DHT22;60111;48.286;7.812;2023-08-20T04:34:22;21.30;86.00
72206;DHT22;60111;48.286;7.812;2023-08-20T04:36:54;21.30;86.10
72206;DHT22;60111;48.286;7.812;2023-08-20T04:39:27;21.30;85.10
72206;DHT22;60111;48.286;7.812;2023-08-20T04:42:00;21.30;85.20
72206;DHT22;60111;48.286;7.812;2023-08-20T04:44:32;21.20;85.30
72206;DHT22;60111;48.286;7.812;2023-08-20T04:47:05;21.20;85.70
72206;DHT22;60111;48.286;7.812;2023-08-20T04:49:37;21.20;85.60
72206;DHT22;60111;48.286;7.812;2023-08-20T04:52:10;21.20;85.30
72206;DHT22;60111;48.286;7.812;2023-08-20T04:54:42;21.10;85.00
72206;DHT22;60111;48.286;7.812;2023-08-20T04:57:15;21.10;85.40
72206;DHT22;60111;48.286;7.812;2023-08-20T04:59:47;21.10;85.60
72206;DHT22;60111;48.286;7.812;2023-08-20T05:02:20;21.20;85.00
72206;DHT22;60111;48.286;7.812;2023-08-20T05:04:53;21.40;84.50
72206;DHT22;60111;48.286;7.812;2023-08-20T05:07:25;21.40;84.10
72206;DHT22;60111;48.286;7.812;2023-08-20T05:09:58;21.40;84.30
72206;DHT22;60111;48.286;7.812;2023-08-20T05:12:31;21.30;84.90
72206;DHT22;60111;48.286;7.812;2023-08-20T05:15:05;21.30;85.20
72206;DHT22;60111;48.286;7.812;2023-08-20T05:17:37;21.30;85.20
72206;DHT22;60111;48.286;7.812;2023-08-20T05:20:11;21.30;85.90
72206;DHT22;60111;48.286;7.812;2023-08-20T05:22:43;21.40;85.50
72206;DHT22;60111;48.286;7.812;2023-08-20T05:25:16;21.40;85.20
72206;DHT22;60111;48.286;7.812;2023-08-20T05:27:48;21.40;84.90
72206;DHT22;60111;48.286;7.812;2023-08-20T05:30:21;21.40;85.00
72206;DHT22;60111;48.286;7.812;2023-08-20T05:32:54;21.40;85.30
72206;DHT22;60111;48.286;7.812;2023-08-20T05:35:26;21.40;85.60
72206;DHT22;60111;48.286;7.812;2023-08-20T05:38:00;21.50;85.50
72206;DHT22;60111;48.286;7.812;2023-08-20T05:40:32;21.50;85.50
72206;DHT22;60111;48.286;7.812;2023-08-20T05:43:05;21.50;84.60
72206;DHT22;60111;48.286;7.812;2023-08-20T05:45:37;21.50;84.70
72206;DHT22;60111;48.286;7.812;2023-08-20T05:48:10;21.60;85.30
72206;DHT22;60111;48.286;7.812;2023-08-20T05:50:42;21.60;85.40
72206;DHT22;60111;48.286;7.812;2023-08-20T05:53:15;21.70;85.50
72206;DHT22;60111;48.286;7.812;2023-08-20T05:55:48;21.80;85.10
72206;DHT22;60111;48.286;7.812;2023-08-20T05:58:20;21.80;84.70
72206;DHT22;60111;48.286;7.812;2023-08-20T06:00:53;21.90;84.50
72206;DHT22;60111;48.286;7.812;2023-08-20T06:03:26;21.90;84.00
72206;DHT22;60111;48.286;7.812;2023-08-20T06:05:58;22.00;83.90
72206;DHT22;60111;48.286;7.812;2023-08-20T06:08:32;22.10;83.90
72206;DHT22;60111;48.286;7.812;2023-08-20T06:11:04;22.20;83.60
72206;DHT22;60111;48.286;7.812;2023-08-20T06:13:37;22.30;83.80
72206;DHT22;60111;48.286;7.812;2023-08-20T06:16:09;22.40;83.60
72206;DHT22;60111;48.286;7.812;2023-08-20T06:18:42;22.50;83.00
72206;DHT22;60111;48.286;7.812;2023-08-20T06:21:15;22.60;82.40
72206;DHT22;60111;48.286;7.812;2023-08-20T06:23:48;22.80;82.30
72206;DHT22;60111;48.286;7.812;2023-08-20T06:26:20;22.90;82.00
72206;DHT22;60111;48.286;7.812;2023-08-20T06:28:53;23.00;81.30
72206;DHT22;60111;48.286;7.812;2023-08-20T06:31:26;23.00;81.50
72206;DHT22;60111;48.286;7.812;2023-08-20T06:33:58;23.10;81.30
72206;DHT22;60111;48.286;7.812;2023-08-20T06:36:31;23.20;81.20
72206;DHT22;60111;48.286;7.812;2023-08-20T06:39:04;23.30;81.10
72206;DHT22;60111;48.286;7.812;2023-08-20T06:41:36;23.40;80.90
72206;DHT22;60111;48.286;7.812;2023-08-20T06:44:09;23.50;81.00
72206;DHT22;60111;48.286;7.812;2023-08-20T06:46:42;23.60;82.20
72206;DHT22;60111;48.286;7.812;2023-08-20T06:49:14;23.70;81.00
72206;DHT22;60111;48.286;7.812;2023-08-20T06:51:47;23.80;80.80
72206;DHT22;60111;48.286;7.812;2023-08-20T06:54:19;23.90;80.40
72206;DHT22;60111;48.286;7.812;2023-08-20T06:56:52;24.00;80.00
72206;DHT22;60111;48.286;7.812;2023-08-20T06:59:24;24.10;80.30
72206;DHT22;60111;48.286;7.812;2023-08-20T07:01:57;24.20;79.60
72206;DHT22;60111;48.286;7.812;2023-08-20T07:04:29;24.30;79.10
72206;DHT22;60111;48.286;7.812;2023-08-20T07:07:02;24.40;79.00
72206;DHT22;60111;48.286;7.812;2023-08-20T07:09:37;24.50;78.30
72206;DHT22;60111;48.286;7.812;2023-08-20T07:12:11;24.60;79.10
72206;DHT22;60111;48.286;7.812;2023-08-20T07:14:43;24.60;77.00
72206;DHT22;60111;48.286;7.812;2023-08-20T07:17:16;24.60;77.10
72206;DHT22;60111;48.286;7.812;2023-08-20T07:19:48;24.70;76.30
72206;DHT22;60111;48.286;7.812;2023-08-20T07:22:21;24.80;77.60
72206;DHT22;60111;48.286;7.812;2023-08-20T07:24:53;24.90;76.40
72206;DHT22;60111;48.286;7.812;2023-08-20T07:27:26;25.00;75.00
72206;DHT22;60111;48.286;7.812;2023-08-20T07:29:59;25.10;74.80
72206;DHT22;60111;48.286;7.812;2023-08-20T07:32:32;25.20;75.40
72206;DHT22;60111;48.286;7.812;2023-08-20T07:35:05;25.30;74.60
72206;DHT22;60111;48.286;7.812;2023-08-20T07:37:38;25.50;74.10
72206;DHT22;60111;48.286;7.812;2023-08-20T07:40:11;25.40;73.10
72206;DHT22;60111;48.286;7.812;2023-08-20T07:42:44;25.30;72.90
72206;DHT22;60111;48.286;7.812;2023-08-20T07:45:17;25.20;74.40
72206;DHT22;60111;48.286;7.812;2023-08-20T07:47:50;25.20;73.40
72206;DHT22;60111;48.286;7.812;2023-08-20T07:50:22;25.10;74.70
72206;DHT22;60111;48.286;7.812;2023-08-20T07:52:55;25.30;75.20
72206;DHT22;60111;48.286;7.812;2023-08-20T07:55:27;25.60;75.10
72206;DHT22;60111;48.286;7.812;2023-08-20T07:58:00;25.80;73.80
72206;DHT22;60111;48.286;7.812;2023-08-20T08:00:33;25.90;72.30
72206;DHT22;60111;48.286;7.812;2023-08-20T08:03:05;26.00;72.00
72206;DHT22;60111;48.286;7.812;2023-08-20T08:05:38;26.10;71.30
72206;DHT22;60111;48.286;7.812;2023-08-20T08:08:10;26.20;71.50
72206;DHT22;60111;48.286;7.812;2023-08-20T08:10:44;26.20;71.70
72206;DHT22;60111;48.286;7.812;2023-08-20T08:13:19;26.40;71.90
72206;DHT22;60111;48.286;7.812;2023-08-20T08:15:52;26.60;71.20
72206;DHT22;60111;48.286;7.812;2023-08-20T08:18:25;26.80;70.10
72206;DHT22;60111;48.286;7.812;2023-08-20T08:20:57;26.90;67.90
72206;DHT22;60111;48.286;7.812;2023-08-20T08:23:30;27.00;67.80
72206;DHT22;60111;48.286;7.812;2023-08-20T08:26:03;27.00;67.60
72206;DHT22;60111;48.286;7.812;2023-08-20T08:28:35;27.00;68.30
72206;DHT22;60111;48.286;7.812;2023-08-20T08:31:08;27.10;68.70
72206;DHT22;60111;48.286;7.812;2023-08-20T08:33:40;27.20;68.90
72206;DHT22;60111;48.286;7.812;2023-08-20T08:36:13;27.40;67.30
72206;DHT22;60111;48.286;7.812;2023-08-20T08:38:47;27.50;66.60
72206;DHT22;60111;48.286;7.812;2023-08-20T08:41:22;27.60;66.00
72206;DHT22;60111;48.286;7.812;2023-08-20T08:43:56;27.70;65.50
72206;DHT22;60111;48.286;7.812;2023-08-20T08:46:28;27.70;66.30
72206;DHT22;60111;48.286;7.812;2023-08-20T08:49:02;27.70;68.00
72206;DHT22;60111;48.286;7.812;2023-08-20T08:51:36;27.60;65.30
72206;DHT22;60111;48.286;7.812;2023-08-20T08:54:10;27.70;69.10
72206;DHT22;60111;48.286;7.812;2023-08-20T08:56:42;27.90;67.20
72206;DHT22;60111;48.286;7.812;2023-08-20T08:59:15;28.10;65.30
72206;DHT22;60111;48.286;7.812;2023-08-20T09:01:49;28.30;65.60
72206;DHT22;60111;48.286;7.812;2023-08-20T09:04:21;28.40;62.70
72206;DHT22;60111;48.286;7.812;2023-08-20T09:06:56;28.40;65.00
72206;DHT22;60111;48.286;7.812;2023-08-20T09:09:30;28.40;64.90
72206;DHT22;60111;48.286;7.812;2023-08-20T09:12:16;28.40;63.90
72206;DHT22;60111;48.286;7.812;2023-08-20T09:14:48;28.50;64.60
72206;DHT22;60111;48.286;7.812;2023-08-20T09:17:24;28.60;63.90
72206;DHT22;60111;48.286;7.812;2023-08-20T09:19:58;28.70;64.70
72206;DHT22;60111;48.286;7.812;2023-08-20T09:22:31;28.90;63.10
72206;DHT22;60111;48.286;7.812;2023-08-20T09:25:04;29.10;64.50
72206;DHT22;60111;48.286;7.812;2023-08-20T09:27:40;29.20;63.10
72206;DHT22;60111;48.286;7.812;2023-08-20T09:30:17;29.30;64.40
72206;DHT22;60111;48.286;7.812;2023-08-20T09:33:06;29.40;62.90
72206;DHT22;60111;48.286;7.812;2023-08-20T09:35:48;29.70;62.40
72206;DHT22;60111;48.286;7.812;2023-08-20T09:38:13;29.90;61.80
72206;DHT22;60111;48.286;7.812;2023-08-20T09:40:48;30.20;61.10
72206;DHT22;60111;48.286;7.812;2023-08-20T09:43:25;30.40;60.50
72206;DHT22;60111;48.286;7.812;2023-08-20T09:46:02;30.50;60.30
72206;DHT22;60111;48.286;7.812;2023-08-20T09:48:38;30.40;59.00
72206;DHT22;60111;48.286;7.812;2023-08-20T09:51:11;30.40;59.30
72206;DHT22;60111;48.286;7.812;2023-08-20T09:53:55;30.50;59.40
72206;DHT22;60111;48.286;7.812;2023-08-20T09:56:29;30.60;58.00
72206;DHT22;60111;48.286;7.812;2023-08-20T09:59:02;30.50;58.90
72206;DHT22;60111;48.286;7.812;2023-08-20T10:04:40;30.60;57.70
72206;DHT22;60111;48.286;7.812;2023-08-20T10:07:14;30.80;58.30
72206;DHT22;60111;48.286;7.812;2023-08-20T10:09:47;30.90;58.30
72206;DHT22;60111;48.286;7.812;2023-08-20T10:12:23;30.90;56.70
72206;DHT22;60111;48.286;7.812;2023-08-20T10:14:57;30.90;57.70
72206;DHT22;60111;48.286;7.812;2023-08-20T10:17:34;31.10;58.70
72206;DHT22;60111;48.286;7.812;2023-08-20T10:20:08;31.30;57.00
72206;DHT22;60111;48.286;7.812;2023-08-20T10:22:43;31.40;57.40
72206;DHT22;60111;48.286;7.812;2023-08-20T10:25:25;31.40;56.70
72206;DHT22;60111;48.286;7.812;2023-08-20T10:31:12;31.70;54.20
72206;DHT22;60111;48.286;7.812;2023-08-20T10:33:50;32.00;55.00
72206;DHT22;60111;48.286;7.812;2023-08-20T10:36:24;32.20;54.80
72206;DHT22;60111;48.286;7.812;2023-08-20T10:39:07;32.30;53.60
72206;DHT22;60111;48.286;7.812;2023-08-20T10:41:36;32.20;54.50
72206;DHT22;60111;48.286;7.812;2023-08-20T10:44:08;32.20;55.80
72206;DHT22;60111;48.286;7.812;2023-08-20T10:46:49;32.20;54.10
72206;DHT22;60111;48.286;7.812;2023-08-20T10:49:17;32.40;53.60
72206;DHT22;60111;48.286;7.812;2023-08-20T10:51:51;32.50;53.30
72206;DHT22;60111;48.286;7.812;2023-08-20T10:54:25;32.40;52.90
72206;DHT22;60111;48.286;7.812;2023-08-20T10:57:00;32.10;53.10
72206;DHT22;60111;48.286;7.812;2023-08-20T10:59:35;32.10;53.90
72206;DHT22;60111;48.286;7.812;2023-08-20T11:02:12;32.20;54.10
72206;DHT22;60111;48.286;7.812;2023-08-20T11:04:45;32.20;53.00
72206;DHT22;60111;48.286;7.812;2023-08-20T11:07:18;32.10;53.50
72206;DHT22;60111;48.286;7.812;2023-08-20T11:09:51;32.00;55.30
72206;DHT22;60111;48.286;7.812;2023-08-20T11:12:24;32.10;55.20
72206;DHT22;60111;48.286;7.812;2023-08-20T11:15:01;31.90;53.80
72206;DHT22;60111;48.286;7.812;2023-08-20T11:17:34;31.70;54.00
72206;DHT22;60111;48.286;7.812;2023-08-20T11:20:07;31.80;55.40
72206;DHT22;60111;48.286;7.812;2023-08-20T11:22:40;32.00;56.50
72206;DHT22;60111;48.286;7.812;2023-08-20T11:25:13;32.30;54.40
72206;DHT22;60111;48.286;7.812;2023-08-20T11:27:46;32.40;52.70
72206;DHT22;60111;48.286;7.812;2023-08-20T11:30:18;32.50;54.70
72206;DHT22;60111;48.286;7.812;2023-08-20T11:32:51;32.60;53.30
72206;DHT22;60111;48.286;7.812;2023-08-20T11:35:24;32.60;54.50
72206;DHT22;60111;48.286;7.812;2023-08-20T11:37:58;32.70;51.20
72206;DHT22;60111;48.286;7.812;2023-08-20T11:40:31;32.90;53.00
72206;DHT22;60111;48.286;7.812;2023-08-20T11:43:05;32.80;53.10
72206;DHT22;60111;48.286;7.812;2023-08-20T11:45:48;32.90;54.60
72206;DHT22;60111;48.286;7.812;2023-08-20T11:48:22;33.20;53.30
72206;DHT22;60111;48.286;7.812;2023-08-20T11:50:55;33.40;52.60
72206;DHT22;60111;48.286;7.812;2023-08-20T11:53:28;33.50;51.10
72206;DHT22;60111;48.286;7.812;2023-08-20T11:56:00;33.70;51.40
72206;DHT22;60111;48.286;7.812;2023-08-20T11:58:34;34.00;51.50
72206;DHT22;60111;48.286;7.812;2023-08-20T12:01:08;34.10;50.60
72206;DHT22;60111;48.286;7.812;2023-08-20T12:03:40;34.20;49.50
72206;DHT22;60111;48.286;7.812;2023-08-20T12:06:20;34.30;48.40
72206;DHT22;60111;48.286;7.812;2023-08-20T12:08:54;34.30;47.50
72206;DHT22;60111;48.286;7.812;2023-08-20T12:11:30;34.40;49.50
72206;DHT22;60111;48.286;7.812;2023-08-20T12:14:04;34.40;48.50
72206;DHT22;60111;48.286;7.812;2023-08-20T12:16:37;34.30;50.20
72206;DHT22;60111;48.286;7.812;2023-08-20T12:19:10;34.30;49.40
72206;DHT22;60111;48.286;7.812;2023-08-20T12:21:42;34.40;48.00
72206;DHT22;60111;48.286;7.812;2023-08-20T12:24:15;34.50;49.20
72206;DHT22;60111;48.286;7.812;2023-08-20T12:26:48;34.60;49.70
72206;DHT22;60111;48.286;7.812;2023-08-20T12:29:20;34.60;48.10
72206;DHT22;60111;48.286;7.812;2023-08-20T12:31:53;34.50;48.40
72206;DHT22;60111;48.286;7.812;2023-08-20T12:34:26;34.60;48.80
72206;DHT22;60111;48.286;7.812;2023-08-20T12:37:00;34.60;49.20
72206;DHT22;60111;48.286;7.812;2023-08-20T12:39:33;34.60;48.70
72206;DHT22;60111;48.286;7.812;2023-08-20T12:42:06;34.40;48.10
72206;DHT22;60111;48.286;7.812;2023-08-20T12:44:39;34.50;49.40
72206;DHT22;60111;48.286;7.812;2023-08-20T12:47:11;34.60;48.80
72206;DHT22;60111;48.286;7.812;2023-08-20T12:49:44;34.70;48.30
72206;DHT22;60111;48.286;7.812;2023-08-20T12:52:16;34.70;48.90
72206;DHT22;60111;48.286;7.812;2023-08-20T12:54:49;34.60;48.30
72206;DHT22;60111;48.286;7.812;2023-08-20T12:57:21;34.30;48.20
72206;DHT22;60111;48.286;7.812;2023-08-20T12:59:54;34.40;49.10
72206;DHT22;60111;48.286;7.812;2023-08-20T13:02:27;34.60;47.90
72206;DHT22;60111;48.286;7.812;2023-08-20T13:05:00;34.60;49.20
72206;DHT22;60111;48.286;7.812;2023-08-20T13:07:33;34.70;49.10
72206;DHT22;60111;48.286;7.812;2023-08-20T13:10:07;34.70;49.30
72206;DHT22;60111;48.286;7.812;2023-08-20T13:12:42;34.60;48.80
72206;DHT22;60111;48.286;7.812;2023-08-20T13:15:17;34.40;48.90
72206;DHT22;60111;48.286;7.812;2023-08-20T13:17:50;34.10;49.00
72206;DHT22;60111;48.286;7.812;2023-08-20T13:20:23;33.90;50.50
72206;DHT22;60111;48.286;7.812;2023-08-20T13:22:56;33.60;50.30
72206;DHT22;60111;48.286;7.812;2023-08-20T13:25:29;33.70;50.50
72206;DHT22;60111;48.286;7.812;2023-08-20T13:28:01;33.70;50.90
72206;DHT22;60111;48.286;7.812;2023-08-20T13:30:35;33.70;50.50
72206;DHT22;60111;48.286;7.812;2023-08-20T13:33:08;33.80;49.40
72206;DHT22;60111;48.286;7.812;2023-08-20T13:35:41;33.90;49.30
72206;DHT22;60111;48.286;7.812;2023-08-20T13:38:14;34.00;49.20
72206;DHT22;60111;48.286;7.812;2023-08-20T13:40:46;34.00;48.40
72206;DHT22;60111;48.286;7.812;2023-08-20T13:43:20;33.80;48.80
72206;DHT22;60111;48.286;7.812;2023-08-20T13:45:52;33.60;50.00
72206;DHT22;60111;48.286;7.812;2023-08-20T13:48:25;33.40;49.70
72206;DHT22;60111;48.286;7.812;2023-08-20T13:50:57;33.20;50.40
72206;DHT22;60111;48.286;7.812;2023-08-20T13:53:30;33.00;51.40
72206;DHT22;60111;48.286;7.812;2023-08-20T13:56:03;32.90;51.70
72206;DHT22;60111;48.286;7.812;2023-08-20T13:58:35;32.90;51.50
72206;DHT22;60111;48.286;7.812;2023-08-20T14:01:08;33.00;52.30
72206;DHT22;60111;48.286;7.812;2023-08-20T14:03:41;33.10;51.70
72206;DHT22;60111;48.286;7.812;2023-08-20T14:06:13;33.40;51.90
72206;DHT22;60111;48.286;7.812;2023-08-20T14:08:46;33.40;49.50
72206;DHT22;60111;48.286;7.812;2023-08-20T14:11:19;33.30;49.60
72206;DHT22;60111;48.286;7.812;2023-08-20T14:13:52;33.40;49.90
72206;DHT22;60111;48.286;7.812;2023-08-20T14:16:25;33.30;49.60
72206;DHT22;60111;48.286;7.812;2023-08-20T14:18:57;33.10;50.00
72206;DHT22;60111;48.286;7.812;2023-08-20T14:21:30;33.20;52.10
72206;DHT22;60111;48.286;7.812;2023-08-20T14:24:02;33.40;50.60
72206;DHT22;60111;48.286;7.812;2023-08-20T14:26:36;33.50;50.10
72206;DHT22;60111;48.286;7.812;2023-08-20T14:29:08;33.70;50.30
72206;DHT22;60111;48.286;7.812;2023-08-20T14:31:41;33.80;50.00
72206;DHT22;60111;48.286;7.812;2023-08-20T14:34:13;33.70;49.10
72206;DHT22;60111;48.286;7.812;2023-08-20T14:36:46;33.60;49.20
72206;DHT22;60111;48.286;7.812;2023-08-20T14:39:18;33.60;50.10
72206;DHT22;60111;48.286;7.812;2023-08-20T14:41:51;33.40;48.50
72206;DHT22;60111;48.286;7.812;2023-08-20T14:44:24;33.20;47.40
72206;DHT22;60111;48.286;7.812;2023-08-20T14:46:56;33.00;48.10
72206;DHT22;60111;48.286;7.812;2023-08-20T14:49:29;32.90;50.40
72206;DHT22;60111;48.286;7.812;2023-08-20T14:52:02;32.90;48.90
72206;DHT22;60111;48.286;7.812;2023-08-20T14:54:36;32.90;48.50
72206;DHT22;60111;48.286;7.812;2023-08-20T14:57:08;33.00;49.20
72206;DHT22;60111;48.286;7.812;2023-08-20T14:59:41;33.00;49.50
72206;DHT22;60111;48.286;7.812;2023-08-20T15:02:13;33.00;49.80
72206;DHT22;60111;48.286;7.812;2023-08-20T15:04:46;33.00;48.30
72206;DHT22;60111;48.286;7.812;2023-08-20T15:07:19;32.90;48.30
72206;DHT22;60111;48.286;7.812;2023-08-20T15:09:51;33.00;50.70
72206;DHT22;60111;48.286;7.812;2023-08-20T15:12:24;33.10;49.60
72206;DHT22;60111;48.286;7.812;2023-08-20T15:14:56;33.30;51.50
72206;DHT22;60111;48.286;7.812;2023-08-20T15:17:29;33.30;50.00
72206;DHT22;60111;48.286;7.812;2023-08-20T15:20:04;33.30;48.60
72206;DHT22;60111;48.286;7.812;2023-08-20T15:22:39;33.20;47.50
72206;DHT22;60111;48.286;7.812;2023-08-20T15:25:12;33.00;48.30
72206;DHT22;60111;48.286;7.812;2023-08-20T15:27:46;32.90;48.40
72206;DHT22;60111;48.286;7.812;2023-08-20T15:30:19;32.90;49.00
72206;DHT22;60111;48.286;7.812;2023-08-20T15:32:53;33.00;50.50
72206;DHT22;60111;48.286;7.812;2023-08-20T15:35:25;32.90;48.40
72206;DHT22;60111;48.286;7.812;2023-08-20T15:37:58;33.00;49.50
72206;DHT22;60111;48.286;7.812;2023-08-20T15:40:31;33.10;49.00
72206;DHT22;60111;48.286;7.812;2023-08-20T15:43:03;33.30;49.90
72206;DHT22;60111;48.286;7.812;2023-08-20T15:45:36;33.50;49.50
72206;DHT22;60111;48.286;7.812;2023-08-20T15:48:08;33.70;48.40
72206;DHT22;60111;48.286;7.812;2023-08-20T15:50:41;33.90;48.90
72206;DHT22;60111;48.286;7.812;2023-08-20T15:53:14;33.90;49.40
72206;DHT22;60111;48.286;7.812;2023-08-20T15:55:46;34.10;48.20
72206;DHT22;60111;48.286;7.812;2023-08-20T15:58:20;34.10;47.40
72206;DHT22;60111;48.286;7.812;2023-08-20T16:00:52;34.10;47.20
72206;DHT22;60111;48.286;7.812;2023-08-20T16:03:25;34.10;47.80
72206;DHT22;60111;48.286;7.812;2023-08-20T16:05:58;34.00;47.00
72206;DHT22;60111;48.286;7.812;2023-08-20T16:08:32;33.90;47.90
72206;DHT22;60111;48.286;7.812;2023-08-20T16:11:06;33.90;48.20
72206;DHT22;60111;48.286;7.812;2023-08-20T16:13:38;34.00;48.10
72206;DHT22;60111;48.286;7.812;2023-08-20T16:16:12;34.00;48.80
72206;DHT22;60111;48.286;7.812;2023-08-20T16:18:45;34.10;49.50
72206;DHT22;60111;48.286;7.812;2023-08-20T16:21:17;34.10;46.60